sensor_id;sensor_type;location;lat;lon;timestamp;pressure;altitude;pressure_sealevel;temperature;humidity
16016;BME280;8112;53.592;10.184;2023-01-30T00:04:06;100680.75;;;3.06;100.00
16016;BME280;8112;53.592;10.184;2023-01-30T00:09:11;100646.03;;;3.06;100.00
16016;BME280;8112;53.592;10.184;2023-01-30T00:14:14;100631.97;;;3.13;100.00
16016;BME280;8112;53.592;10.184;2023-01-30T00:19:15;100637.06;;;3.16;100.00
16016;BME280;8112;53.592;10.184;2023-01-30T00:24:18;100631.56;;;3.25;100.00
16016;BME280;8112;53.592;10.184;2023-01-30T00:29:20;100621.94;;;3.27;100.00
16016;BME280;8112;53.592;10.184;2023-01-30T00:34:22;100601.13;;;3.27;100.00
16016;BME280;8112;53.592;10.184;2023-01-30T00:39:25;100579.91;;;3.40;100.00
16016;BME280;8112;53.592;10.184;2023-01-30T00:44:28;100565.88;;;3.44;100.00
16016;BME280;8112;53.592;10.184;2023-01-30T00:49:47;100550.97;;;3.49;100.00
16016;BME280;8112;53.592;10.184;2023-01-30T00:54:51;100549.66;;;3.63;100.00
16016;BME280;8112;53.592;10.184;2023-01-30T00:59:53;100534.88;;;3.63;100.00
16016;BME280;8112;53.592;10.184;2023-01-30T01:04:55;100513.00;;;3.67;100.00
16016;BME280;8112;53.592;10.184;2023-01-30T01:09:58;100500.50;;;3.77;100.00
16016;BME280;8112;53.592;10.184;2023-01-30T01:14:59;100486.59;;;3.78;100.00
16016;BME280;8112;53.592;10.184;2023-01-30T01:20:02;100492.97;;;3.95;100.00
16016;BME280;8112;53.592;10.184;2023-01-30T01:25:07;100474.72;;;3.95;100.00
16016;BME280;8112;53.592;10.184;2023-01-30T01:30:10;100455.91;;;3.87;100.00
16016;BME280;8112;53.592;10.184;2023-01-30T01:35:12;100454.28;;;3.82;100.00
16016;BME280;8112;53.592;10.184;2023-01-30T01:40:18;100439.34;;;3.88;100.00
16016;BME280;8112;53.592;10.184;2023-01-30T01:45:37;100417.69;;;3.85;100.00
16016;BME280;8112;53.592;10.184;2023-01-30T01:50:42;100416.84;;;3.85;100.00
16016;BME280;8112;53.592;10.184;2023-01-30T01:55:48;100407.59;;;4.00;100.00
16016;BME280;8112;53.592;10.184;2023-01-30T02:00:51;100377.69;;;3.87;100.00
16016;BME280;8112;53.592;10.184;2023-01-30T02:05:56;100393.78;;;3.98;100.00
16016;BME280;8112;53.592;10.184;2023-01-30T02:11:04;100393.22;;;3.90;100.00
16016;BME280;8112;53.592;10.184;2023-01-30T02:16:07;100380.19;;;3.90;100.00
16016;BME280;8112;53.592;10.184;2023-01-30T02:22:01;100376.94;;;4.07;100.00
16016;BME280;8112;53.592;10.184;2023-01-30T02:27:26;100376.09;;;4.06;100.00
16016;BME280;8112;53.592;10.184;2023-01-30T02:32:33;100374.00;;;4.16;100.00
16016;BME280;8112;53.592;10.184;2023-01-30T02:37:46;100368.16;;;4.09;100.00
16016;BME280;8112;53.592;10.184;2023-01-30T02:42:58;100358.63;;;4.08;100.00
16016;BME280;8112;53.592;10.184;2023-01-30T02:48:06;100348.75;;;4.17;100.00
16016;BME280;8112;53.592;10.184;2023-01-30T02:53:11;100338.88;;;4.25;100.00
16016;BME280;8112;53.592;10.184;2023-01-30T02:58:14;100339.84;;;4.22;100.00
16016;BME280;8112;53.592;10.184;2023-01-30T03:03:29;100334.06;;;4.36;100.00
16016;BME280;8112;53.592;10.184;2023-01-30T03:08:41;100333.25;;;4.36;100.00
16016;BME280;8112;53.592;10.184;2023-01-30T03:13:53;100312.19;;;4.40;100.00
16016;BME280;8112;53.592;10.184;2023-01-30T03:18:58;100308.66;;;4.41;100.00
16016;BME280;8112;53.592;10.184;2023-01-30T03:24:00;100293.72;;;4.45;100.00
16016;BME280;8112;53.592;10.184;2023-01-30T03:29:03;100291.78;;;4.50;100.00
16016;BME280;8112;53.592;10.184;2023-01-30T03:34:07;100290.03;;;4.51;100.00
16016;BME280;8112;53.592;10.184;2023-01-30T03:39:08;100269.75;;;4.57;100.00
16016;BME280;8112;53.592;10.184;2023-01-30T03:44:10;100280.69;;;4.66;100.00
16016;BME280;8112;53.592;10.184;2023-01-30T03:49:16;100269.25;;;4.70;100.00
16016;BME280;8112;53.592;10.184;2023-01-30T03:54:18;100240.19;;;4.57;100.00
16016;BME280;8112;53.592;10.184;2023-01-30T03:59:21;100259.59;;;4.72;100.00
16016;BME280;8112;53.592;10.184;2023-01-30T04:04:31;100266.81;;;4.86;100.00
16016;BME280;8112;53.592;10.184;2023-01-30T04:09:33;100257.25;;;4.87;100.00
16016;BME280;8112;53.592;10.184;2023-01-30T04:14:36;100240.31;;;4.95;100.00
16016;BME280;8112;53.592;10.184;2023-01-30T04:19:57;100257.56;;;4.99;100.00
16016;BME280;8112;53.592;10.184;2023-01-30T04:25:00;100307.47;;;5.12;100.00
16016;BME280;8112;53.592;10.184;2023-01-30T04:30:02;100288.34;;;4.70;100.00
16016;BME280;8112;53.592;10.184;2023-01-30T04:35:07;100290.50;;;4.61;100.00
16016;BME280;8112;53.592;10.184;2023-01-30T04:40:09;100297.72;;;4.54;100.00
16016;BME280;8112;53.592;10.184;2023-01-30T04:45:12;100286.59;;;4.50;100.00
16016;BME280;8112;53.592;10.184;2023-01-30T04:50:15;100272.63;;;4.51;100.00
16016;BME280;8112;53.592;10.184;2023-01-30T04:55:17;100273.31;;;4.55;100.00
16016;BME280;8112;53.592;10.184;2023-01-30T05:00:19;100257.00;;;4.50;100.00
16016;BME280;8112;53.592;10.184;2023-01-30T05:05:28;100259.50;;;4.53;100.00
16016;BME280;8112;53.592;10.184;2023-01-30T05:10:30;100266.69;;;4.68;100.00
16016;BME280;8112;53.592;10.184;2023-01-30T05:15:32;100274.38;;;4.71;100.00
16016;BME280;8112;53.592;10.184;2023-01-30T05:20:35;100260.56;;;4.69;100.00
16016;BME280;8112;53.592;10.184;2023-01-30T05:25:37;100261.72;;;4.83;100.00
16016;BME280;8112;53.592;10.184;2023-01-30T05:30:38;100265.00;;;4.88;100.00
16016;BME280;8112;53.592;10.184;2023-01-30T05:35:46;100258.16;;;4.85;100.00
16016;BME280;8112;53.592;10.184;2023-01-30T05:40:56;100258.53;;;4.76;100.00
16016;BME280;8112;53.592;10.184;2023-01-30T05:46:01;100257.78;;;4.93;100.00
16016;BME280;8112;53.592;10.184;2023-01-30T05:51:05;100269.28;;;4.89;100.00
16016;BME280;8112;53.592;10.184;2023-01-30T05:56:09;100258.59;;;4.75;100.00
16016;BME280;8112;53.592;10.184;2023-01-30T06:01:12;100251.16;;;4.65;100.00
16016;BME280;8112;53.592;10.184;2023-01-30T06:06:15;100243.31;;;4.65;100.00
16016;BME280;8112;53.592;10.184;2023-01-30T06:11:16;100233.53;;;4.50;100.00
16016;BME280;8112;53.592;10.184;2023-01-30T06:16:18;100259.34;;;4.56;100.00
16016;BME280;8112;53.592;10.184;2023-01-30T06:21:21;100243.13;;;4.49;100.00
16016;BME280;8112;53.592;10.184;2023-01-30T06:26:23;100257.66;;;4.55;100.00
16016;BME280;8112;53.592;10.184;2023-01-30T06:31:24;100253.75;;;4.45;100.00
16016;BME280;8112;53.592;10.184;2023-01-30T06:36:27;100245.59;;;4.32;100.00
16016;BME280;8112;53.592;10.184;2023-01-30T06:41:29;100268.97;;;4.33;100.00
16016;BME280;8112;53.592;10.184;2023-01-30T06:46:31;100266.50;;;4.30;100.00
16016;BME280;8112;53.592;10.184;2023-01-30T06:51:34;100260.50;;;4.28;100.00
16016;BME280;8112;53.592;10.184;2023-01-30T06:56:36;100264.16;;;4.24;100.00
16016;BME280;8112;53.592;10.184;2023-01-30T07:01:37;100264.16;;;4.24;100.00
16016;BME280;8112;53.592;10.184;2023-01-30T07:06:40;100272.88;;;4.23;100.00
16016;BME280;8112;53.592;10.184;2023-01-30T07:11:42;100289.44;;;4.22;100.00
16016;BME280;8112;53.592;10.184;2023-01-30T07:16:44;100272.41;;;4.13;100.00
16016;BME280;8112;53.592;10.184;2023-01-30T07:21:47;100274.69;;;4.21;100.00
16016;BME280;8112;53.592;10.184;2023-01-30T07:26:48;100241.94;;;4.13;100.00
16016;BME280;8112;53.592;10.184;2023-01-30T07:31:50;100256.03;;;4.32;100.00
16016;BME280;8112;53.592;10.184;2023-01-30T07:36:54;100255.75;;;4.38;100.00
16016;BME280;8112;53.592;10.184;2023-01-30T07:41:55;100253.88;;;4.41;100.00
16016;BME280;8112;53.592;10.184;2023-01-30T07:46:58;100256.69;;;4.57;100.00
16016;BME280;8112;53.592;10.184;2023-01-30T07:52:02;100259.38;;;4.97;100.00
16016;BME280;8112;53.592;10.184;2023-01-30T07:57:03;100248.47;;;5.08;100.00
16016;BME280;8112;53.592;10.184;2023-01-30T08:02:05;100247.25;;;4.96;100.00
16016;BME280;8112;53.592;10.184;2023-01-30T08:07:08;100241.94;;;4.98;100.00
16016;BME280;8112;53.592;10.184;2023-01-30T08:12:10;100261.88;;;5.20;100.00
16016;BME280;8112;53.592;10.184;2023-01-30T08:17:11;100237.69;;;4.75;100.00
16016;BME280;8112;53.592;10.184;2023-01-30T08:22:14;100256.66;;;4.59;100.00
16016;BME280;8112;53.592;10.184;2023-01-30T08:27:16;100230.59;;;4.14;100.00
16016;BME280;8112;53.592;10.184;2023-01-30T08:32:18;100261.72;;;3.97;100.00
16016;BME280;8112;53.592;10.184;2023-01-30T08:37:21;100243.41;;;3.98;100.00
16016;BME280;8112;53.592;10.184;2023-01-30T08:42:22;100237.63;;;4.35;100.00
16016;BME280;8112;53.592;10.184;2023-01-30T08:47:24;100228.19;;;4.53;100.00
16016;BME280;8112;53.592;10.184;2023-01-30T08:52:27;100234.94;;;4.57;100.00
16016;BME280;8112;53.592;10.184;2023-01-30T08:57:29;100239.06;;;4.63;100.00
16016;BME280;8112;53.592;10.184;2023-01-30T09:02:31;100233.66;;;4.88;100.00
16016;BME280;8112;53.592;10.184;2023-01-30T09:07:34;100227.22;;;5.16;100.00
16016;BME280;8112;53.592;10.184;2023-01-30T09:12:36;100224.91;;;5.48;100.00
16016;BME280;8112;53.592;10.184;2023-01-30T09:17:38;100221.31;;;5.32;100.00
16016;BME280;8112;53.592;10.184;2023-01-30T09:22:41;100216.72;;;5.37;100.00
16016;BME280;8112;53.592;10.184;2023-01-30T09:27:43;100217.44;;;5.40;100.00
16016;BME280;8112;53.592;10.184;2023-01-30T09:32:47;100201.38;;;5.67;100.00
16016;BME280;8112;53.592;10.184;2023-01-30T09:37:52;100193.06;;;5.96;100.00
16016;BME280;8112;53.592;10.184;2023-01-30T09:43:12;100181.94;;;6.10;100.00
16016;BME280;8112;53.592;10.184;2023-01-30T09:48:20;100184.03;;;6.21;100.00
16016;BME280;8112;53.592;10.184;2023-01-30T09:53:30;100165.97;;;6.16;100.00
16016;BME280;8112;53.592;10.184;2023-01-30T09:58:45;100158.56;;;6.24;100.00
16016;BME280;8112;53.592;10.184;2023-01-30T10:03:55;100157.69;;;5.89;100.00
16016;BME280;8112;53.592;10.184;2023-01-30T10:09:02;100177.75;;;5.32;100.00
16016;BME280;8112;53.592;10.184;2023-01-30T10:14:37;100182.31;;;5.08;100.00
16016;BME280;8112;53.592;10.184;2023-01-30T10:25:25;100155.66;;;4.61;100.00
16016;BME280;8112;53.592;10.184;2023-01-30T10:30:30;100176.06;;;4.72;100.00
16016;BME280;8112;53.592;10.184;2023-01-30T10:35:34;100161.78;;;4.60;100.00
16016;BME280;8112;53.592;10.184;2023-01-30T10:40:41;100153.19;;;4.77;100.00
16016;BME280;8112;53.592;10.184;2023-01-30T10:45:49;100146.88;;;5.21;100.00
16016;BME280;8112;53.592;10.184;2023-01-30T10:50:57;100140.22;;;5.52;100.00
16016;BME280;8112;53.592;10.184;2023-01-30T10:56:07;100112.31;;;5.90;100.00
16016;BME280;8112;53.592;10.184;2023-01-30T11:01:16;100120.97;;;5.36;100.00
16016;BME280;8112;53.592;10.184;2023-01-30T11:06:24;100119.31;;;4.76;100.00
16016;BME280;8112;53.592;10.184;2023-01-30T11:11:30;100140.56;;;4.47;100.00
16016;BME280;8112;53.592;10.184;2023-01-30T11:16:42;100170.84;;;3.88;100.00
16016;BME280;8112;53.592;10.184;2023-01-30T11:21:47;100179.50;;;3.66;100.00
16016;BME280;8112;53.592;10.184;2023-01-30T11:26:52;100200.97;;;3.73;100.00
16016;BME280;8112;53.592;10.184;2023-01-30T11:31:57;100227.44;;;3.62;100.00
16016;BME280;8112;53.592;10.184;2023-01-30T11:37:17;100196.16;;;3.62;100.00
16016;BME280;8112;53.592;10.184;2023-01-30T11:42:30;100207.34;;;3.65;100.00
16016;BME280;8112;53.592;10.184;2023-01-30T11:47:32;100207.16;;;3.70;100.00
16016;BME280;8112;53.592;10.184;2023-01-30T11:52:35;100212.84;;;4.02;100.00
16016;BME280;8112;53.592;10.184;2023-01-30T11:57:40;100208.84;;;4.36;100.00
16016;BME280;8112;53.592;10.184;2023-01-30T12:02:44;100200.06;;;4.39;100.00
16016;BME280;8112;53.592;10.184;2023-01-30T12:07:49;100191.50;;;4.56;100.00
16016;BME280;8112;53.592;10.184;2023-01-30T12:12:55;100163.84;;;4.73;100.00
16016;BME280;8112;53.592;10.184;2023-01-30T12:18:02;100168.88;;;5.73;100.00
16016;BME280;8112;53.592;10.184;2023-01-30T12:23:11;100169.47;;;5.22;100.00
16016;BME280;8112;53.592;10.184;2023-01-30T12:28:21;100182.66;;;4.60;100.00
16016;BME280;8112;53.592;10.184;2023-01-30T12:33:27;100195.56;;;4.42;100.00
16016;BME280;8112;53.592;10.184;2023-01-30T12:38:40;100232.16;;;4.19;100.00
16016;BME280;8112;53.592;10.184;2023-01-30T12:43:54;100191.41;;;3.73;100.00
16016;BME280;8112;53.592;10.184;2023-01-30T12:49:21;100202.03;;;3.45;100.00
16016;BME280;8112;53.592;10.184;2023-01-30T12:54:35;100180.41;;;4.09;100.00
16016;BME280;8112;53.592;10.184;2023-01-30T12:59:49;100195.47;;;5.45;100.00
16016;BME280;8112;53.592;10.184;2023-01-30T13:05:06;100202.63;;;6.34;100.00
16016;BME280;8112;53.592;10.184;2023-01-30T13:10:21;100186.56;;;5.68;100.00
16016;BME280;8112;53.592;10.184;2023-01-30T13:15:35;100194.66;;;6.35;100.00
16016;BME280;8112;53.592;10.184;2023-01-30T13:20:49;100187.41;;;6.58;100.00
16016;BME280;8112;53.592;10.184;2023-01-30T13:25:57;100185.69;;;5.87;100.00
16016;BME280;8112;53.592;10.184;2023-01-30T13:31:04;100185.59;;;5.88;100.00
16016;BME280;8112;53.592;10.184;2023-01-30T13:36:12;100177.31;;;5.97;100.00
16016;BME280;8112;53.592;10.184;2023-01-30T13:41:15;100181.03;;;5.74;100.00
16016;BME280;8112;53.592;10.184;2023-01-30T13:46:24;100200.53;;;5.28;100.00
16016;BME280;8112;53.592;10.184;2023-01-30T13:51:44;100230.66;;;4.97;100.00
16016;BME280;8112;53.592;10.184;2023-01-30T13:56:49;100217.50;;;4.59;100.00
16016;BME280;8112;53.592;10.184;2023-01-30T14:02:19;100254.50;;;4.69;100.00
16016;BME280;8112;53.592;10.184;2023-01-30T14:07:24;100241.31;;;4.72;100.00
16016;BME280;8112;53.592;10.184;2023-01-30T14:12:33;100265.44;;;4.77;100.00
16016;BME280;8112;53.592;10.184;2023-01-30T14:17:37;100283.34;;;5.07;100.00
16016;BME280;8112;53.592;10.184;2023-01-30T14:22:46;100295.84;;;5.20;100.00
16016;BME280;8112;53.592;10.184;2023-01-30T14:27:50;100287.00;;;5.43;100.00
16016;BME280;8112;53.592;10.184;2023-01-30T14:32:54;100318.88;;;5.51;100.00
16016;BME280;8112;53.592;10.184;2023-01-30T14:38:12;100320.16;;;5.62;100.00
16016;BME280;8112;53.592;10.184;2023-01-30T14:43:35;100344.69;;;5.59;100.00
16016;BME280;8112;53.592;10.184;2023-01-30T14:48:41;100361.63;;;5.69;100.00
16016;BME280;8112;53.592;10.184;2023-01-30T14:53:50;100392.81;;;5.74;100.00
16016;BME280;8112;53.592;10.184;2023-01-30T14:58:58;100416.59;;;5.89;100.00
16016;BME280;8112;53.592;10.184;2023-01-30T15:04:03;100418.91;;;5.95;100.00
16016;BME280;8112;53.592;10.184;2023-01-30T15:09:06;100439.97;;;5.92;100.00
16016;BME280;8112;53.592;10.184;2023-01-30T15:14:12;100431.06;;;5.96;100.00
16016;BME280;8112;53.592;10.184;2023-01-30T15:19:34;100454.75;;;5.93;100.00
16016;BME280;8112;53.592;10.184;2023-01-30T15:25:14;100454.31;;;5.83;100.00
16016;BME280;8112;53.592;10.184;2023-01-30T15:30:25;100463.13;;;5.80;100.00
16016;BME280;8112;53.592;10.184;2023-01-30T15:35:35;100481.44;;;5.80;100.00
16016;BME280;8112;53.592;10.184;2023-01-30T15:40:39;100505.41;;;5.90;100.00
16016;BME280;8112;53.592;10.184;2023-01-30T15:45:50;100522.22;;;5.84;100.00
16016;BME280;8112;53.592;10.184;2023-01-30T15:50:59;100522.63;;;5.75;100.00
16016;BME280;8112;53.592;10.184;2023-01-30T15:56:05;100550.59;;;5.73;100.00
16016;BME280;8112;53.592;10.184;2023-01-30T16:01:09;100561.66;;;5.80;100.00
16016;BME280;8112;53.592;10.184;2023-01-30T16:06:27;100557.03;;;5.87;100.00
16016;BME280;8112;53.592;10.184;2023-01-30T16:11:38;100578.63;;;5.69;100.00
16016;BME280;8112;53.592;10.184;2023-01-30T16:16:43;100603.25;;;5.64;100.00
16016;BME280;8112;53.592;10.184;2023-01-30T16:21:48;100620.91;;;5.59;100.00
16016;BME280;8112;53.592;10.184;2023-01-30T16:26:52;100622.34;;;5.66;100.00
16016;BME280;8112;53.592;10.184;2023-01-30T16:31:55;100614.16;;;5.53;100.00
16016;BME280;8112;53.592;10.184;2023-01-30T16:37:03;100638.66;;;5.50;100.00
16016;BME280;8112;53.592;10.184;2023-01-30T16:42:20;100647.03;;;5.36;100.00
16016;BME280;8112;53.592;10.184;2023-01-30T16:47:24;100686.84;;;5.43;100.00
16016;BME280;8112;53.592;10.184;2023-01-30T16:52:30;100666.97;;;5.39;100.00
16016;BME280;8112;53.592;10.184;2023-01-30T16:57:38;100701.84;;;5.38;100.00
16016;BME280;8112;53.592;10.184;2023-01-30T17:02:41;100737.84;;;5.30;100.00
16016;BME280;8112;53.592;10.184;2023-01-30T17:07:52;100762.28;;;5.05;100.00
16016;BME280;8112;53.592;10.184;2023-01-30T17:12:55;100760.69;;;5.01;100.00
16016;BME280;8112;53.592;10.184;2023-01-30T17:17:57;100784.06;;;5.04;100.00
16016;BME280;8112;53.592;10.184;2023-01-30T17:23:04;100795.84;;;5.16;100.00
16016;BME280;8112;53.592;10.184;2023-01-30T17:28:10;100792.06;;;5.24;100.00
16016;BME280;8112;53.592;10.184;2023-01-30T17:33:16;100824.03;;;5.31;100.00
16016;BME280;8112;53.592;10.184;2023-01-30T17:38:19;100809.41;;;5.27;100.00
16016;BME280;8112;53.592;10.184;2023-01-30T17:43:20;100820.00;;;5.22;100.00
16016;BME280;8112;53.592;10.184;2023-01-30T17:48:22;100816.22;;;5.31;100.00
16016;BME280;8112;53.592;10.184;2023-01-30T17:53:25;100824.31;;;5.23;100.00
16016;BME280;8112;53.592;10.184;2023-01-30T17:58:27;100828.75;;;5.21;100.00
16016;BME280;8112;53.592;10.184;2023-01-30T18:03:28;100842.94;;;5.14;100.00
16016;BME280;8112;53.592;10.184;2023-01-30T18:08:31;100828.38;;;5.07;100.00
16016;BME280;8112;53.592;10.184;2023-01-30T18:13:33;100845.09;;;5.01;100.00
16016;BME280;8112;53.592;10.184;2023-01-30T18:18:35;100845.34;;;4.93;100.00
16016;BME280;8112;53.592;10.184;2023-01-30T18:23:38;100840.75;;;5.02;100.00
16016;BME280;8112;53.592;10.184;2023-01-30T18:28:39;100854.50;;;5.07;100.00
16016;BME280;8112;53.592;10.184;2023-01-30T18:33:43;100882.63;;;4.98;100.00
16016;BME280;8112;53.592;10.184;2023-01-30T18:38:46;100872.84;;;4.78;100.00
16016;BME280;8112;53.592;10.184;2023-01-30T18:43:52;100889.22;;;4.55;100.00
16016;BME280;8112;53.592;10.184;2023-01-30T18:48:55;100906.81;;;4.48;100.00
16016;BME280;8112;53.592;10.184;2023-01-30T18:53:58;100905.28;;;4.42;100.00
16016;BME280;8112;53.592;10.184;2023-01-30T18:59:02;100902.34;;;4.25;100.00
16016;BME280;8112;53.592;10.184;2023-01-30T19:04:06;100929.81;;;4.37;100.00
16016;BME280;8112;53.592;10.184;2023-01-30T19:09:12;100941.25;;;4.33;100.00
16016;BME280;8112;53.592;10.184;2023-01-30T19:14:14;100953.50;;;4.29;100.00
16016;BME280;8112;53.592;10.184;2023-01-30T19:19:16;100956.16;;;4.27;100.00
16016;BME280;8112;53.592;10.184;2023-01-30T19:24:19;100948.53;;;4.21;100.00
16016;BME280;8112;53.592;10.184;2023-01-30T19:29:22;100983.00;;;4.33;100.00
16016;BME280;8112;53.592;10.184;2023-01-30T19:34:24;100982.47;;;4.20;100.00
16016;BME280;8112;53.592;10.184;2023-01-30T19:39:27;101008.25;;;3.99;100.00
16016;BME280;8112;53.592;10.184;2023-01-30T19:44:29;101009.06;;;4.01;100.00
16016;BME280;8112;53.592;10.184;2023-01-30T19:49:30;101010.84;;;3.99;100.00
16016;BME280;8112;53.592;10.184;2023-01-30T19:54:33;101011.81;;;3.96;100.00
16016;BME280;8112;53.592;10.184;2023-01-30T19:59:35;101023.84;;;4.01;100.00
16016;BME280;8112;53.592;10.184;2023-01-30T20:04:38;101048.16;;;4.01;100.00
16016;BME280;8112;53.592;10.184;2023-01-30T20:09:41;101055.66;;;3.80;100.00
16016;BME280;8112;53.592;10.184;2023-01-30T20:14:43;101068.88;;;3.74;100.00
16016;BME280;8112;53.592;10.184;2023-01-30T20:19:44;101079.44;;;3.68;100.00
16016;BME280;8112;53.592;10.184;2023-01-30T20:24:47;101085.75;;;3.59;100.00
16016;BME280;8112;53.592;10.184;2023-01-30T20:29:49;101089.03;;;3.66;100.00
16016;BME280;8112;53.592;10.184;2023-01-30T20:34:50;101111.09;;;3.52;100.00
16016;BME280;8112;53.592;10.184;2023-01-30T20:39:54;101107.72;;;3.47;100.00
16016;BME280;8112;53.592;10.184;2023-01-30T20:44:56;101112.53;;;3.64;100.00
16016;BME280;8112;53.592;10.184;2023-01-30T20:49:58;101113.63;;;3.55;100.00
16016;BME280;8112;53.592;10.184;2023-01-30T20:55:01;101123.94;;;3.60;100.00
16016;BME280;8112;53.592;10.184;2023-01-30T21:00:03;101122.09;;;3.64;100.00
16016;BME280;8112;53.592;10.184;2023-01-30T21:05:06;101137.63;;;3.68;100.00
16016;BME280;8112;53.592;10.184;2023-01-30T21:10:10;101133.94;;;3.79;100.00
16016;BME280;8112;53.592;10.184;2023-01-30T21:15:11;101145.81;;;3.91;100.00
16016;BME280;8112;53.592;10.184;2023-01-30T21:20:13;101146.78;;;3.87;100.00
16016;BME280;8112;53.592;10.184;2023-01-30T21:25:16;101158.03;;;3.89;100.00
16016;BME280;8112;53.592;10.184;2023-01-30T21:30:19;101152.03;;;3.83;100.00
16016;BME280;8112;53.592;10.184;2023-01-30T21:35:20;101153.19;;;3.71;100.00
16016;BME280;8112;53.592;10.184;2023-01-30T21:40:23;101157.78;;;3.62;100.00
16016;BME280;8112;53.592;10.184;2023-01-30T21:45:57;101179.03;;;3.43;100.00
16016;BME280;8112;53.592;10.184;2023-01-30T21:51:07;101189.44;;;3.45;100.00
16016;BME280;8112;53.592;10.184;2023-01-30T21:56:10;101192.19;;;3.37;100.00
16016;BME280;8112;53.592;10.184;2023-01-30T22:01:12;101205.22;;;3.37;100.00
16016;BME280;8112;53.592;10.184;2023-01-30T22:06:14;101214.75;;;3.39;100.00
16016;BME280;8112;53.592;10.184;2023-01-30T22:11:17;101220.66;;;3.46;100.00
16016;BME280;8112;53.592;10.184;2023-01-30T22:16:20;101226.91;;;3.39;100.00
16016;BME280;8112;53.592;10.184;2023-01-30T22:21:24;101231.22;;;3.38;100.00
16016;BME280;8112;53.592;10.184;2023-01-30T22:26:27;101227.78;;;3.39;100.00
16016;BME280;8112;53.592;10.184;2023-01-30T22:31:32;101233.88;;;3.37;100.00
16016;BME280;8112;53.592;10.184;2023-01-30T22:36:34;101236.44;;;3.40;100.00
16016;BME280;8112;53.592;10.184;2023-01-30T22:41:37;101246.03;;;3.36;100.00
16016;BME280;8112;53.592;10.184;2023-01-30T22:46:39;101242.53;;;3.39;100.00
16016;BME280;8112;53.592;10.184;2023-01-30T22:51:41;101258.22;;;3.36;100.00
16016;BME280;8112;53.592;10.184;2023-01-30T22:56:46;101259.13;;;3.35;100.00
16016;BME280;8112;53.592;10.184;2023-01-30T23:01:49;101257.50;;;3.27;100.00
16016;BME280;8112;53.592;10.184;2023-01-30T23:06:51;101253.38;;;3.17;100.00
16016;BME280;8112;53.592;10.184;2023-01-30T23:11:56;101251.59;;;3.19;100.00
16016;BME280;8112;53.592;10.184;2023-01-30T23:17:15;101238.59;;;3.18;100.00
16016;BME280;8112;53.592;10.184;2023-01-30T23:22:30;101251.81;;;3.08;100.00
16016;BME280;8112;53.592;10.184;2023-01-30T23:27:33;101252.72;;;3.06;100.00
16016;BME280;8112;53.592;10.184;2023-01-30T23:32:35;101262.25;;;3.08;100.00
16016;BME280;8112;53.592;10.184;2023-01-30T23:37:37;101270.78;;;3.15;100.00
16016;BME280;8112;53.592;10.184;2023-01-30T23:42:57;101269.03;;;3.16;100.00
16016;BME280;8112;53.592;10.184;2023-01-30T23:47:59;101259.22;;;3.28;100.00
16016;BME280;8112;53.592;10.184;2023-01-30T23:53:01;101264.47;;;3.27;100.00
16016;BME280;8112;53.592;10.184;2023-01-30T23:58:04;101255.22;;;3.12;100.00
